createdAt,value
2022-08-24T00:01:58.423Z,101306.34
2022-08-24T00:04:27.017Z,101311.06
2022-08-24T00:06:56.527Z,101311.22
2022-08-24T00:09:24.493Z,101303.28
2022-08-24T00:11:53.787Z,101300.00
2022-08-24T00:14:21.689Z,101300.88
2022-08-24T00:16:49.681Z,101301.13
2022-08-24T00:19:18.274Z,101311.19
2022-08-24T00:21:46.089Z,101298.13
2022-08-24T00:24:14.617Z,101306.16
2022-08-24T00:26:42.509Z,101303.69
2022-08-24T00:29:11.661Z,101301.78
2022-08-24T00:31:39.584Z,101300.03
2022-08-24T00:34:07.803Z,101297.53
2022-08-24T00:36:36.200Z,101299.25
2022-08-24T00:39:05.771Z,101300.53
2022-08-24T00:41:33.782Z,101295.50
2022-08-24T00:44:03.639Z,101294.59
2022-08-24T00:46:43.579Z,101291.81
2022-08-24T00:49:18.731Z,101291.53
2022-08-24T00:51:55.529Z,101292.16
2022-08-24T00:54:26.867Z,101296.69
2022-08-24T00:56:58.956Z,101294.22
2022-08-24T00:59:35.394Z,101289.97
2022-08-24T01:02:15.319Z,101287.59
2022-08-24T01:04:50.069Z,101287.44
2022-08-24T01:07:18.348Z,101294.69
2022-08-24T01:09:46.313Z,101296.63
2022-08-24T01:12:14.193Z,101295.13
2022-08-24T01:14:42.302Z,101289.66
2022-08-24T01:17:29.419Z,101295.19
2022-08-24T01:19:59.628Z,101296.38
2022-08-24T01:22:48.329Z,101291.59
2022-08-24T01:25:17.943Z,101290.19
2022-08-24T01:27:46.399Z,101286.38
2022-08-24T01:30:17.338Z,101290.09
2022-08-24T01:32:55.174Z,101294.69
2022-08-24T01:35:23.181Z,101286.06
2022-08-24T01:37:52.547Z,101288.03
2022-08-24T01:40:22.784Z,101295.41
2022-08-24T01:42:52.055Z,101299.59
2022-08-24T01:45:22.901Z,101298.25
2022-08-24T01:47:50.940Z,101301.66
2022-08-24T01:50:19.010Z,101308.38
2022-08-24T01:53:04.308Z,101316.38
2022-08-24T01:55:35.539Z,101312.94
2022-08-24T01:58:04.136Z,101314.94
2022-08-24T02:00:32.687Z,101315.56
2022-08-24T02:03:00.616Z,101312.19
2022-08-24T02:05:29.656Z,101320.31
2022-08-24T02:07:58.785Z,101320.31
2022-08-24T02:10:27.566Z,101314.38
2022-08-24T02:12:58.999Z,101325.13
2022-08-24T02:15:29.715Z,101320.13
2022-08-24T02:17:59.013Z,101322.09
2022-08-24T02:20:28.038Z,101331.03
2022-08-24T02:22:57.082Z,101328.19
2022-08-24T02:25:26.347Z,101329.28
2022-08-24T02:27:56.219Z,101333.72
2022-08-24T02:30:24.193Z,101326.09
2022-08-24T02:32:52.089Z,101327.03
2022-08-24T02:35:21.222Z,101330.53
2022-08-24T02:37:50.007Z,101325.31
2022-08-24T02:40:18.276Z,101330.13
2022-08-24T02:42:46.774Z,101334.59
2022-08-24T02:45:16.306Z,101331.16
2022-08-24T02:47:45.876Z,101345.66
2022-08-24T02:50:17.057Z,101338.03
2022-08-24T02:52:46.215Z,101342.47
2022-08-24T02:55:20.127Z,101335.34
2022-08-24T02:57:52.090Z,101335.50
2022-08-24T03:00:22.914Z,101340.88
2022-08-24T03:02:54.787Z,101341.88
2022-08-24T03:05:24.228Z,101337.66
2022-08-24T03:07:52.842Z,101334.97
2022-08-24T03:10:21.755Z,101337.81
2022-08-24T03:12:50.613Z,101333.59
2022-08-24T03:15:23.177Z,101340.63
2022-08-24T03:17:52.525Z,101342.75
2022-08-24T03:20:23.589Z,101343.88
2022-08-24T03:22:52.123Z,101352.75
2022-08-24T03:25:24.509Z,101346.44
2022-08-24T03:27:53.289Z,101347.38
2022-08-24T03:30:24.061Z,101349.25
2022-08-24T03:32:52.615Z,101350.41
2022-08-24T03:35:21.961Z,101350.56
2022-08-24T03:37:50.819Z,101347.78
2022-08-24T03:40:23.104Z,101339.06
2022-08-24T03:42:55.679Z,101346.50
2022-08-24T03:45:25.128Z,101354.53
2022-08-24T03:47:55.352Z,101358.22
2022-08-24T03:50:25.114Z,101353.09
2022-08-24T03:52:53.566Z,101357.50
2022-08-24T03:55:22.477Z,101359.31
2022-08-24T03:57:50.405Z,101354.94
2022-08-24T04:00:18.736Z,101363.16
2022-08-24T04:02:57.229Z,101358.78
2022-08-24T04:05:27.333Z,101363.28
2022-08-24T04:07:55.621Z,101359.94
2022-08-24T04:10:24.651Z,101353.91
2022-08-24T04:12:54.888Z,101353.63
2022-08-24T04:15:24.442Z,101353.63
2022-08-24T04:17:52.969Z,101347.44
2022-08-24T04:20:22.781Z,101350.06
2022-08-24T04:23:01.851Z,101353.09
2022-08-24T04:25:29.710Z,101351.22
2022-08-24T04:27:58.399Z,101354.75
2022-08-24T04:30:26.304Z,101351.34
2022-08-24T04:33:08.544Z,101363.84
2022-08-24T04:35:40.547Z,101363.84
2022-08-24T04:38:09.203Z,101368.25
2022-08-24T04:40:40.692Z,101363.84
2022-08-24T04:43:10.425Z,101371.88
2022-08-24T04:45:40.879Z,101369.31
2022-08-24T04:48:09.035Z,101370.06
2022-08-24T04:50:38.175Z,101371.69
2022-08-24T04:53:08.519Z,101375.97
2022-08-24T04:55:44.893Z,101374.88
2022-08-24T04:58:13.576Z,101379.41
2022-08-24T05:00:42.117Z,101382.72
2022-08-24T05:03:11.271Z,101390.72
2022-08-24T05:05:41.789Z,101389.69
2022-08-24T05:08:11.628Z,101385.94
2022-08-24T05:10:40.368Z,101384.06
2022-08-24T05:13:08.789Z,101388.44
2022-08-24T05:15:38.117Z,101388.44
2022-08-24T05:18:07.644Z,101383.06
2022-08-24T05:20:36.776Z,101387.28
2022-08-24T05:23:05.308Z,101389.91
2022-08-24T05:25:35.928Z,101388.88
2022-08-24T05:28:04.041Z,101385.91
2022-08-24T05:30:32.023Z,101388.44
2022-08-24T05:32:59.981Z,101391.13
2022-08-24T05:35:27.916Z,101391.13
2022-08-24T05:37:56.049Z,101392.69
2022-08-24T05:40:30.619Z,101397.31
2022-08-24T05:43:03.541Z,101395.16
2022-08-24T05:45:31.710Z,101395.94
2022-08-24T05:47:59.647Z,101392.06
2022-08-24T05:50:53.191Z,101396.38
2022-08-24T05:53:21.307Z,101401.44
2022-08-24T05:55:49.139Z,101399.41
2022-08-24T05:58:30.636Z,101397.16
2022-08-24T06:01:00.286Z,101398.84
2022-08-24T06:03:28.707Z,101405.00
2022-08-24T06:05:57.817Z,101402.72
2022-08-24T06:08:26.040Z,101397.00
2022-08-24T06:10:54.137Z,101405.78
2022-08-24T06:13:23.532Z,101406.50
2022-08-24T06:16:20.276Z,101408.66
2022-08-24T06:18:50.703Z,101406.69
2022-08-24T06:21:21.907Z,101410.97
2022-08-24T06:23:51.063Z,101414.31
2022-08-24T06:26:38.358Z,101423.81
2022-08-24T06:29:08.962Z,101428.72
2022-08-24T06:31:46.990Z,101429.25
2022-08-24T06:34:18.957Z,101417.38
2022-08-24T06:36:47.648Z,101424.97
2022-08-24T06:39:15.668Z,101424.69
2022-08-24T06:41:46.476Z,101426.09
2022-08-24T06:44:22.602Z,101423.06
2022-08-24T06:47:00.683Z,101417.22
2022-08-24T06:49:28.913Z,101430.38
2022-08-24T06:51:56.761Z,101421.00
2022-08-24T06:54:24.944Z,101432.25
2022-08-24T06:56:52.964Z,101430.09
2022-08-24T06:59:22.233Z,101437.75
2022-08-24T07:01:50.444Z,101433.84
2022-08-24T07:04:18.956Z,101438.88
2022-08-24T07:07:05.745Z,101430.47
2022-08-24T07:09:34.387Z,101442.66
2022-08-24T07:12:02.532Z,101435.88
2022-08-24T07:14:32.512Z,101432.75
2022-08-24T07:17:02.711Z,101436.84
2022-08-24T07:19:32.701Z,101445.28
2022-08-24T07:22:01.603Z,101441.03
2022-08-24T07:24:29.520Z,101441.38
2022-08-24T07:26:58.216Z,101442.72
2022-08-24T07:32:16.589Z,101449.16
2022-08-24T07:34:46.228Z,101452.44
2022-08-24T07:37:14.273Z,101453.22
2022-08-24T07:39:46.534Z,101455.09
2022-08-24T07:42:20.756Z,101458.13
2022-08-24T07:44:54.079Z,101458.19
2022-08-24T07:47:44.556Z,101453.00
2022-08-24T07:50:25.854Z,101460.81
2022-08-24T07:52:53.730Z,101461.09
2022-08-24T07:55:21.765Z,101458.97
2022-08-24T07:57:51.082Z,101457.53
2022-08-24T08:00:21.208Z,101462.34
2022-08-24T08:02:56.847Z,101462.00
2022-08-24T08:05:25.369Z,101461.78
2022-08-24T08:07:54.981Z,101462.38
2022-08-24T08:10:23.584Z,101466.81
2022-08-24T08:12:53.696Z,101467.59
2022-08-24T08:15:21.726Z,101480.19
2022-08-24T08:18:03.492Z,101473.41
2022-08-24T08:20:33.233Z,101470.97
2022-08-24T08:23:19.190Z,101479.34
2022-08-24T08:26:22.524Z,101459.81
2022-08-24T08:29:12.938Z,101457.63
2022-08-24T08:31:43.072Z,101460.91
2022-08-24T08:34:14.096Z,101462.72
2022-08-24T08:36:47.218Z,101451.72
2022-08-24T08:39:19.981Z,101447.41
2022-08-24T08:42:19.825Z,101449.59
2022-08-24T08:45:28.268Z,101443.75
2022-08-24T08:48:55.737Z,101446.69
2022-08-24T08:51:59.410Z,101444.22
2022-08-24T08:54:33.871Z,101444.22
2022-08-24T08:57:17.293Z,101441.09
2022-08-24T09:00:05.092Z,101436.31
2022-08-24T09:03:17.382Z,101436.81
2022-08-24T09:06:40.739Z,101433.13
2022-08-24T09:09:27.679Z,101425.31
2022-08-24T09:12:05.317Z,101427.97
2022-08-24T09:15:11.922Z,101432.00
2022-08-24T09:17:55.764Z,101424.38
2022-08-24T09:20:41.612Z,101423.03
2022-08-24T09:23:19.725Z,101419.91
2022-08-24T09:25:58.848Z,101421.41
2022-08-24T09:28:41.068Z,101425.97
2022-08-24T09:34:16.878Z,101422.66
2022-08-24T09:36:55.511Z,101426.25
2022-08-24T09:39:56.954Z,101431.56
2022-08-24T09:43:01.338Z,101424.31
2022-08-24T09:46:07.947Z,101422.16
2022-08-24T09:49:10.071Z,101414.75
2022-08-24T09:52:11.933Z,101421.22
2022-08-24T09:54:59.436Z,101421.66
2022-08-24T09:58:00.427Z,101428.00
2022-08-24T10:00:35.308Z,101422.13
2022-08-24T10:03:12.182Z,101424.09
2022-08-24T10:06:06.118Z,101421.88
2022-08-24T10:08:51.210Z,101428.56
2022-08-24T10:11:27.611Z,101425.06
2022-08-24T10:14:04.450Z,101420.16
2022-08-24T10:16:41.575Z,101420.16
2022-08-24T10:19:27.331Z,101414.47
2022-08-24T10:22:03.887Z,101415.84
2022-08-24T10:24:49.757Z,101400.13
2022-08-24T10:27:32.224Z,101407.31
2022-08-24T10:30:41.528Z,101407.59
2022-08-24T10:33:18.805Z,101394.84
2022-08-24T10:36:14.641Z,101395.94
2022-08-24T10:39:07.696Z,101402.16
2022-08-24T10:42:04.015Z,101390.28
2022-08-24T10:44:50.943Z,101390.28
2022-08-24T10:47:26.814Z,101389.53
2022-08-24T10:50:20.883Z,101391.50
2022-08-24T10:53:14.232Z,101392.97
2022-08-24T10:55:44.532Z,101393.00
2022-08-24T10:58:43.656Z,101395.69
2022-08-24T11:01:18.124Z,101392.25
2022-08-24T11:03:52.570Z,101389.00
2022-08-24T11:06:21.632Z,101387.75
2022-08-24T11:08:56.152Z,101377.34
2022-08-24T11:11:29.568Z,101385.50
2022-08-24T11:14:00.520Z,101381.41
2022-08-24T11:16:32.810Z,101378.47
2022-08-24T11:19:02.714Z,101382.03
2022-08-24T11:21:45.090Z,101389.34
2022-08-24T11:24:30.592Z,101372.63
2022-08-24T11:27:04.324Z,101376.53
2022-08-24T11:29:56.665Z,101366.19
2022-08-24T11:32:37.673Z,101375.78
2022-08-24T11:35:10.526Z,101379.84
2022-08-24T11:37:40.516Z,101357.97
2022-08-24T11:40:10.614Z,101364.81
2022-08-24T11:43:17.764Z,101364.19
2022-08-24T11:45:51.871Z,101372.41
2022-08-24T11:48:36.045Z,101368.75
2022-08-24T11:51:12.827Z,101364.03
2022-08-24T11:53:51.943Z,101366.31
2022-08-24T11:56:26.581Z,101360.25
2022-08-24T11:59:03.773Z,101363.06
2022-08-24T12:01:44.450Z,101360.19
2022-08-24T12:04:38.044Z,101357.50
2022-08-24T12:07:19.988Z,101354.09
2022-08-24T12:10:03.532Z,101363.69
2022-08-24T12:12:38.726Z,101356.63
2022-08-24T12:15:14.259Z,101354.25
2022-08-24T12:17:48.685Z,101358.34
2022-08-24T12:20:27.144Z,101353.88
2022-08-24T12:22:59.370Z,101355.91
2022-08-24T12:25:48.084Z,101347.03
2022-08-24T12:28:22.015Z,101358.22
2022-08-24T12:30:53.901Z,101359.81
2022-08-24T12:33:28.414Z,101356.13
2022-08-24T12:36:03.356Z,101354.44
2022-08-24T12:38:36.801Z,101357.13
2022-08-24T12:41:17.789Z,101357.03
2022-08-24T12:43:50.674Z,101346.53
2022-08-24T12:46:24.537Z,101339.34
2022-08-24T12:48:56.762Z,101344.78
2022-08-24T12:51:46.157Z,101358.91
2022-08-24T12:54:33.531Z,101345.19
2022-08-24T12:57:16.650Z,101349.50
2022-08-24T12:59:48.189Z,101349.50
2022-08-24T13:02:36.992Z,101352.84
2022-08-24T13:05:16.389Z,101350.09
2022-08-24T13:07:46.584Z,101346.50
2022-08-24T13:10:35.465Z,101339.44
2022-08-24T13:13:18.465Z,101340.34
2022-08-24T13:16:03.124Z,101340.66
2022-08-24T13:19:09.949Z,101340.69
2022-08-24T13:21:46.275Z,101342.69
2022-08-24T13:24:53.633Z,101334.09
2022-08-24T13:28:12.078Z,101335.53
2022-08-24T13:31:00.761Z,101334.06
2022-08-24T13:33:34.912Z,101322.59
2022-08-24T13:36:10.735Z,101326.75
2022-08-24T13:39:01.748Z,101325.75
2022-08-24T13:41:50.142Z,101320.59
2022-08-24T13:44:38.897Z,101314.25
2022-08-24T13:47:13.459Z,101316.84
2022-08-24T13:50:02.223Z,101320.63
2022-08-24T13:52:42.627Z,101316.84
2022-08-24T13:55:36.096Z,101309.09
2022-08-24T13:58:19.031Z,101314.91
2022-08-24T14:00:52.326Z,101312.31
2022-08-24T14:03:57.421Z,101309.16
2022-08-24T14:06:40.618Z,101305.13
2022-08-24T14:09:37.303Z,101311.03
2022-08-24T14:12:19.800Z,101312.59
2022-08-24T14:15:13.024Z,101311.59
2022-08-24T14:17:54.051Z,101320.06
2022-08-24T14:20:57.079Z,101313.47
2022-08-24T14:23:34.924Z,101310.03
2022-08-24T14:26:40.619Z,101314.91
2022-08-24T14:29:32.108Z,101312.59
2022-08-24T14:32:35.881Z,101308.25
2022-08-24T14:35:40.720Z,101304.53
2022-08-24T14:38:27.061Z,101305.97
2022-08-24T14:41:04.039Z,101304.66
2022-08-24T14:43:47.835Z,101313.44
2022-08-24T14:46:24.573Z,101306.84
2022-08-24T14:49:08.934Z,101300.22
2022-08-24T14:51:54.479Z,101297.34
2022-08-24T14:54:32.720Z,101296.16
2022-08-24T14:57:14.809Z,101290.41
2022-08-24T14:59:55.148Z,101291.09
2022-08-24T15:02:46.135Z,101291.81
2022-08-24T15:05:23.810Z,101283.44
2022-08-24T15:07:58.729Z,101283.69
2022-08-24T15:10:30.149Z,101291.44
2022-08-24T15:13:03.925Z,101279.50
2022-08-24T15:15:35.936Z,101278.59
2022-08-24T15:18:15.680Z,101278.88
2022-08-24T15:20:56.702Z,101280.44
2022-08-24T15:23:39.426Z,101276.78
2022-08-24T15:26:15.242Z,101268.75
2022-08-24T15:28:56.598Z,101267.84
2022-08-24T15:31:29.829Z,101274.41
2022-08-24T15:34:02.092Z,101273.38
2022-08-24T15:36:33.022Z,101264.97
2022-08-24T15:39:01.504Z,101269.06
2022-08-24T15:41:33.087Z,101265.53
2022-08-24T15:44:05.316Z,101267.75
2022-08-24T15:46:38.046Z,101276.09
2022-08-24T15:49:17.358Z,101269.91
2022-08-24T15:51:51.798Z,101273.94
2022-08-24T15:54:32.995Z,101263.78
2022-08-24T15:57:04.559Z,101268.41
2022-08-24T15:59:45.525Z,101272.38
2022-08-24T16:02:28.600Z,101267.94
2022-08-24T16:05:14.353Z,101271.75
2022-08-24T16:08:10.315Z,101261.78
2022-08-24T16:10:41.474Z,101267.41
2022-08-24T16:13:14.572Z,101268.66
2022-08-24T16:15:48.142Z,101266.25
2022-08-24T16:18:17.137Z,101270.34
2022-08-24T16:20:47.125Z,101267.38
2022-08-24T16:23:24.650Z,101270.59
2022-08-24T16:26:21.081Z,101267.84
2022-08-24T16:28:50.421Z,101276.13
2022-08-24T16:31:54.090Z,101272.31
2022-08-24T16:34:28.621Z,101274.09
2022-08-24T16:36:57.067Z,101271.00
2022-08-24T16:39:25.635Z,101276.25
2022-08-24T16:41:57.497Z,101274.22
2022-08-24T16:44:29.037Z,101282.25
2022-08-24T16:46:56.987Z,101276.94
2022-08-24T16:49:24.952Z,101264.75
2022-08-24T16:51:52.924Z,101268.03
2022-08-24T16:54:20.772Z,101281.44
2022-08-24T16:56:48.762Z,101267.06
2022-08-24T16:59:24.974Z,101279.28
2022-08-24T17:01:52.985Z,101283.38
2022-08-24T17:04:21.251Z,101277.06
2022-08-24T17:06:52.542Z,101282.34
2022-08-24T17:09:25.017Z,101278.94
2022-08-24T17:11:53.040Z,101279.06
2022-08-24T17:14:22.395Z,101279.03
2022-08-24T17:16:50.510Z,101280.88
2022-08-24T17:19:20.710Z,101278.31
2022-08-24T17:21:49.287Z,101285.00
2022-08-24T17:24:20.924Z,101284.25
2022-08-24T17:26:50.862Z,101277.22
2022-08-24T17:29:19.831Z,101287.13
2022-08-24T17:31:50.676Z,101292.94
2022-08-24T17:34:20.450Z,101296.31
2022-08-24T17:36:50.063Z,101296.44
2022-08-24T17:39:19.388Z,101301.16
2022-08-24T17:41:47.667Z,101305.84
2022-08-24T17:44:19.583Z,101310.78
2022-08-24T17:46:51.522Z,101316.00
2022-08-24T17:49:19.909Z,101321.50
2022-08-24T17:51:49.611Z,101315.16
2022-08-24T17:54:17.666Z,101325.81
2022-08-24T17:56:48.659Z,101322.69
2022-08-24T17:59:23.509Z,101327.84
2022-08-24T18:01:54.939Z,101328.34
2022-08-24T18:04:27.545Z,101329.78
2022-08-24T18:06:58.058Z,101337.34
2022-08-24T18:09:30.844Z,101339.97
2022-08-24T18:12:03.865Z,101337.19
2022-08-24T18:14:34.401Z,101340.72
2022-08-24T18:17:07.522Z,101341.78
2022-08-24T18:19:36.169Z,101343.72
2022-08-24T18:22:05.320Z,101353.69
2022-08-24T18:24:33.979Z,101354.59
2022-08-24T18:27:10.187Z,101351.19
2022-08-24T18:29:40.452Z,101359.31
2022-08-24T18:32:12.222Z,101361.94
2022-08-24T18:34:41.136Z,101361.50
2022-08-24T18:37:09.435Z,101365.72
2022-08-24T18:39:37.609Z,101367.72
2022-08-24T18:42:08.867Z,101369.59
2022-08-24T18:44:38.753Z,101373.69
2022-08-24T18:47:07.132Z,101373.97
2022-08-24T18:49:36.657Z,101380.38
2022-08-24T18:52:07.663Z,101379.66
2022-08-24T18:54:39.245Z,101374.44
2022-08-24T18:57:08.645Z,101376.31
2022-08-24T18:59:40.667Z,101387.66
2022-08-24T19:02:29.917Z,101386.03
2022-08-24T19:05:01.493Z,101386.78
2022-08-24T19:07:32.787Z,101395.66
2022-08-24T19:10:01.233Z,101394.19
2022-08-24T19:12:31.572Z,101397.84
2022-08-24T19:15:01.961Z,101395.38
2022-08-24T19:17:30.069Z,101393.13
2022-08-24T19:19:59.460Z,101394.81
2022-08-24T19:22:27.775Z,101398.75
2022-08-24T19:24:56.325Z,101403.91
2022-08-24T19:27:25.418Z,101401.41
2022-08-24T19:29:55.889Z,101400.13
2022-08-24T19:32:26.857Z,101396.91
2022-08-24T19:34:55.563Z,101401.72
2022-08-24T19:37:24.876Z,101402.69
2022-08-24T19:39:53.135Z,101403.50
2022-08-24T19:42:22.508Z,101400.50
2022-08-24T19:45:10.986Z,101402.47
2022-08-24T19:47:39.840Z,101399.94
2022-08-24T19:50:08.947Z,101406.56
2022-08-24T19:52:39.860Z,101408.97
2022-08-24T19:55:10.643Z,101414.88
2022-08-24T19:57:44.211Z,101411.84
2022-08-24T20:00:28.959Z,101409.88
2022-08-24T20:02:58.761Z,101412.31
2022-08-24T20:05:28.988Z,101408.84
2022-08-24T20:07:59.864Z,101417.44
2022-08-24T20:10:28.101Z,101414.28
2022-08-24T20:12:56.145Z,101416.47
2022-08-24T20:15:25.012Z,101415.19
2022-08-24T20:17:56.435Z,101432.53
2022-08-24T20:20:27.171Z,101426.78
2022-08-24T20:22:55.642Z,101426.19
2022-08-24T20:25:24.894Z,101431.63
2022-08-24T20:28:12.199Z,101436.38
2022-08-24T20:30:43.053Z,101435.09
2022-08-24T20:33:16.179Z,101437.56
2022-08-24T20:35:44.849Z,101441.25
2022-08-24T20:38:16.152Z,101442.88
2022-08-24T20:40:45.415Z,101443.09
2022-08-24T20:43:13.522Z,101445.94
2022-08-24T20:45:42.063Z,101440.91
2022-08-24T20:48:11.973Z,101452.06
2022-08-24T20:50:43.391Z,101446.84
2022-08-24T20:53:12.291Z,101447.16
2022-08-24T20:55:41.545Z,101448.34
2022-08-24T20:58:11.169Z,101448.69
2022-08-24T21:00:40.926Z,101453.63
2022-08-24T21:03:08.980Z,101452.06
2022-08-24T21:05:37.224Z,101456.81
2022-08-24T21:08:06.161Z,101448.13
2022-08-24T21:10:33.979Z,101452.13
2022-08-24T21:13:02.526Z,101454.28
2022-08-24T21:15:32.166Z,101451.97
2022-08-24T21:18:00.035Z,101454.03
2022-08-24T21:20:28.443Z,101451.81
2022-08-24T21:22:57.343Z,101450.16
2022-08-24T21:25:25.762Z,101445.19
2022-08-24T21:27:54.201Z,101460.03
2022-08-24T21:30:24.098Z,101458.50
2022-08-24T21:33:10.825Z,101455.25
2022-08-24T21:35:39.171Z,101452.81
2022-08-24T21:38:08.477Z,101449.53
2022-08-24T21:40:36.772Z,101460.63
2022-08-24T21:43:09.318Z,101454.47
2022-08-24T21:45:43.020Z,101460.25
2022-08-24T21:48:14.451Z,101463.25
2022-08-24T21:50:42.602Z,101459.00
2022-08-24T21:53:10.602Z,101462.88
2022-08-24T21:55:39.005Z,101463.13
2022-08-24T21:58:06.989Z,101461.44
2022-08-24T22:00:35.554Z,101460.03
2022-08-24T22:03:04.410Z,101467.41
2022-08-24T22:05:34.066Z,101467.59
2022-08-24T22:08:02.000Z,101456.28
2022-08-24T22:10:31.570Z,101462.75
2022-08-24T22:13:03.976Z,101457.66
2022-08-24T22:15:32.773Z,101454.25
2022-08-24T22:18:01.295Z,101445.53
2022-08-24T22:20:29.306Z,101452.28
2022-08-24T22:22:59.400Z,101450.44
2022-08-24T22:25:27.562Z,101455.09
2022-08-24T22:27:55.391Z,101451.75
2022-08-24T22:30:23.287Z,101446.47
2022-08-24T22:32:51.236Z,101445.97
2022-08-24T22:35:19.366Z,101445.44
2022-08-24T22:37:47.751Z,101451.75
2022-08-24T22:40:19.022Z,101452.78
2022-08-24T22:42:47.169Z,101444.09
2022-08-24T22:45:15.640Z,101448.72
2022-08-24T22:47:43.542Z,101449.88
2022-08-24T22:50:11.684Z,101444.63
2022-08-24T22:52:39.706Z,101446.75
2022-08-24T22:55:08.713Z,101449.47
2022-08-24T22:57:37.912Z,101445.34
2022-08-24T23:00:07.731Z,101439.94
2022-08-24T23:02:36.993Z,101441.78
2022-08-24T23:05:05.395Z,101441.47
2022-08-24T23:07:35.293Z,101448.78
2022-08-24T23:10:03.283Z,101445.22
2022-08-24T23:12:31.145Z,101437.31
2022-08-24T23:15:00.726Z,101444.50
2022-08-24T23:17:28.676Z,101440.34
2022-08-24T23:20:01.847Z,101448.53
2022-08-24T23:22:32.376Z,101446.97
2022-08-24T23:25:01.396Z,101439.81
2022-08-24T23:27:32.803Z,101440.97
2022-08-24T23:30:10.683Z,101438.44
2022-08-24T23:32:39.080Z,101434.16
2022-08-24T23:35:08.010Z,101431.63
2022-08-24T23:37:36.012Z,101433.72
2022-08-24T23:40:04.653Z,101436.50
2022-08-24T23:42:32.504Z,101431.28
2022-08-24T23:45:00.306Z,101432.34
2022-08-24T23:47:30.272Z,101437.13
2022-08-24T23:50:04.410Z,101437.28
2022-08-24T23:52:39.242Z,101435.91
2022-08-24T23:55:21.908Z,101435.47
2022-08-24T23:57:51.151Z,101432.94
